createdAt,value
2023-05-19T00:00:03.832Z,40.97
2023-05-19T00:01:03.874Z,41.00
2023-05-19T00:02:03.952Z,40.96
2023-05-19T00:03:04.028Z,40.98
2023-05-19T00:04:04.009Z,41.00
2023-05-19T00:05:04.047Z,40.97
2023-05-19T00:06:04.145Z,40.98
2023-05-19T00:07:04.140Z,40.99
2023-05-19T00:08:04.174Z,40.96
2023-05-19T00:09:04.224Z,41.00
2023-05-19T00:10:04.268Z,41.02
2023-05-19T00:11:04.300Z,41.03
2023-05-19T00:12:04.344Z,40.98
2023-05-19T00:13:04.383Z,41.00
2023-05-19T00:14:04.432Z,40.99
2023-05-19T00:15:04.473Z,40.99
2023-05-19T00:16:04.532Z,41.01
2023-05-19T00:17:04.547Z,41.00
2023-05-19T00:18:04.593Z,40.99
2023-05-19T00:19:04.667Z,40.99
2023-05-19T00:20:04.656Z,41.02
2023-05-19T00:21:04.707Z,41.02
2023-05-19T00:22:04.737Z,40.99
2023-05-19T00:23:04.792Z,40.99
2023-05-19T00:24:04.818Z,41.00
2023-05-19T00:25:04.868Z,40.98
2023-05-19T00:26:04.907Z,41.00
2023-05-19T00:27:04.946Z,40.99
2023-05-19T00:28:04.996Z,40.99
2023-05-19T00:29:05.041Z,41.01
2023-05-19T00:30:05.070Z,41.00
2023-05-19T00:31:05.100Z,41.00
2023-05-19T00:32:05.185Z,41.00
2023-05-19T00:33:05.281Z,41.00
2023-05-19T00:34:05.230Z,41.00
2023-05-19T00:35:05.270Z,41.02
2023-05-19T00:36:05.314Z,40.98
2023-05-19T00:37:05.346Z,41.01
2023-05-19T00:38:05.383Z,41.02
2023-05-19T00:39:05.427Z,41.03
2023-05-19T00:40:05.471Z,40.99
2023-05-19T00:41:05.658Z,41.04
2023-05-19T00:42:05.562Z,41.01
2023-05-19T00:43:05.590Z,41.03
2023-05-19T00:44:05.626Z,41.02
2023-05-19T00:45:05.674Z,41.03
2023-05-19T00:46:05.714Z,41.02
2023-05-19T00:47:05.808Z,41.02
2023-05-19T00:48:05.802Z,41.02
2023-05-19T00:49:05.817Z,41.02
2023-05-19T00:50:05.871Z,41.02
2023-05-19T00:51:05.901Z,41.03
2023-05-19T00:52:05.940Z,41.03
2023-05-19T00:53:05.981Z,41.02
2023-05-19T00:54:06.035Z,41.01
2023-05-19T00:55:06.080Z,41.02
2023-05-19T00:56:06.406Z,41.04
2023-05-19T00:57:06.138Z,41.03
2023-05-19T00:58:06.173Z,41.04
2023-05-19T00:59:06.216Z,41.04
2023-05-19T01:00:06.255Z,41.03
2023-05-19T01:01:06.336Z,41.02
2023-05-19T01:02:06.337Z,41.01
2023-05-19T01:03:06.486Z,41.04
2023-05-19T01:04:06.496Z,41.03
2023-05-19T01:05:06.470Z,41.05
2023-05-19T01:06:06.519Z,41.02
2023-05-19T01:07:06.564Z,41.03
2023-05-19T01:08:06.601Z,41.03
2023-05-19T01:09:06.667Z,41.05
2023-05-19T01:10:06.721Z,41.03
2023-05-19T01:11:06.872Z,41.03
2023-05-19T01:12:06.772Z,41.03
2023-05-19T01:13:06.835Z,41.06
2023-05-19T01:14:06.868Z,41.03
2023-05-19T01:15:06.898Z,41.07
2023-05-19T01:16:07.038Z,41.05
2023-05-19T01:17:06.976Z,41.05
2023-05-19T01:18:07.065Z,41.04
2023-05-19T01:19:07.075Z,41.06
2023-05-19T01:20:07.100Z,41.04
2023-05-19T01:21:07.144Z,41.05
2023-05-19T01:22:07.205Z,41.05
2023-05-19T01:23:07.230Z,41.06
2023-05-19T01:24:07.274Z,41.04
2023-05-19T01:25:07.316Z,41.05
2023-05-19T01:26:07.364Z,41.04
2023-05-19T01:27:07.423Z,41.03
2023-05-19T01:28:07.452Z,41.05
2023-05-19T01:29:07.586Z,41.06
2023-05-19T01:30:07.543Z,41.05
2023-05-19T01:31:07.593Z,41.07
2023-05-19T01:32:07.741Z,41.07
2023-05-19T01:33:07.789Z,41.05
2023-05-19T01:34:07.707Z,41.04
2023-05-19T01:35:07.751Z,41.08
2023-05-19T01:36:07.793Z,41.08
2023-05-19T01:37:07.855Z,41.08
2023-05-19T01:38:07.917Z,41.04
2023-05-19T01:39:07.931Z,41.05
2023-05-19T01:40:07.987Z,41.07
2023-05-19T01:41:08.033Z,41.09
2023-05-19T01:42:08.068Z,41.07
2023-05-19T01:43:08.110Z,41.09
2023-05-19T01:44:08.158Z,41.07
2023-05-19T01:45:08.192Z,41.11
2023-05-19T01:46:08.274Z,41.07
2023-05-19T01:47:08.278Z,41.08
2023-05-19T01:48:10.894Z,41.07
2023-05-19T01:49:08.329Z,41.07
2023-05-19T01:50:08.358Z,41.09
2023-05-19T01:51:08.353Z,41.08
2023-05-19T01:52:08.360Z,41.09
2023-05-19T01:53:08.357Z,41.07
2023-05-19T01:54:08.394Z,41.09
2023-05-19T01:55:08.398Z,41.13
2023-05-19T01:56:08.414Z,41.09
2023-05-19T01:57:08.415Z,41.09
2023-05-19T01:58:08.429Z,41.09
2023-05-19T01:59:08.437Z,41.07
2023-05-19T02:00:08.455Z,41.08
2023-05-19T02:01:08.499Z,41.10
2023-05-19T02:02:08.590Z,41.09
2023-05-19T02:03:08.566Z,41.10
2023-05-19T02:04:08.529Z,41.08
2023-05-19T02:05:08.499Z,41.10
2023-05-19T02:06:08.512Z,41.12
2023-05-19T02:07:08.514Z,41.12
2023-05-19T02:08:08.525Z,41.09
2023-05-19T02:09:08.543Z,41.11
2023-05-19T02:10:08.559Z,41.13
2023-05-19T02:11:08.591Z,41.12
2023-05-19T02:12:08.584Z,41.12
2023-05-19T02:13:08.630Z,41.11
2023-05-19T02:14:08.605Z,41.11
2023-05-19T02:15:08.625Z,41.12
2023-05-19T02:16:08.684Z,41.12
2023-05-19T02:17:08.632Z,41.13
2023-05-19T02:18:08.634Z,41.10
2023-05-19T02:19:08.672Z,41.10
2023-05-19T02:20:08.659Z,41.10
2023-05-19T02:21:08.666Z,41.11
2023-05-19T02:22:08.683Z,41.11
2023-05-19T02:23:08.673Z,41.11
2023-05-19T02:24:08.686Z,41.11
2023-05-19T02:25:08.704Z,41.11
2023-05-19T02:26:08.757Z,41.11
2023-05-19T02:27:08.737Z,41.11
2023-05-19T02:28:08.741Z,41.09
2023-05-19T02:29:08.755Z,41.12
2023-05-19T02:30:08.772Z,41.13
2023-05-19T02:31:08.798Z,41.12
2023-05-19T02:32:08.827Z,41.16
2023-05-19T02:33:08.867Z,41.11
2023-05-19T02:34:08.837Z,41.13
2023-05-19T02:35:08.861Z,41.10
2023-05-19T02:36:08.865Z,41.13
2023-05-19T02:37:08.878Z,41.13
2023-05-19T02:38:08.899Z,41.16
2023-05-19T02:39:08.914Z,41.16
2023-05-19T02:40:08.926Z,41.13
2023-05-19T02:41:08.947Z,41.13
2023-05-19T02:42:08.955Z,41.14
2023-05-19T02:43:08.966Z,41.14
2023-05-19T02:44:08.975Z,41.13
2023-05-19T02:45:08.999Z,41.14
2023-05-19T02:46:09.061Z,41.17
2023-05-19T02:47:09.013Z,41.11
2023-05-19T02:48:09.049Z,41.12
2023-05-19T02:49:09.036Z,41.13
2023-05-19T02:50:09.068Z,41.14
2023-05-19T02:51:09.063Z,41.14
2023-05-19T02:52:09.071Z,41.16
2023-05-19T02:53:09.093Z,41.14
2023-05-19T02:54:09.084Z,41.17
2023-05-19T02:55:09.088Z,41.17
2023-05-19T02:56:09.100Z,41.14
2023-05-19T02:57:09.103Z,41.14
2023-05-19T02:58:09.112Z,41.17
2023-05-19T02:59:09.127Z,41.15
2023-05-19T03:00:09.149Z,41.16
2023-05-19T03:01:09.155Z,41.14
2023-05-19T03:02:09.191Z,41.14
2023-05-19T03:03:09.222Z,41.16
2023-05-19T03:04:10.205Z,41.17
2023-05-19T03:05:09.191Z,41.14
2023-05-19T03:06:09.182Z,41.16
2023-05-19T03:07:09.214Z,41.17
2023-05-19T03:08:09.204Z,41.18
2023-05-19T03:09:09.218Z,41.18
2023-05-19T03:10:09.214Z,41.18
2023-05-19T03:11:09.221Z,41.18
2023-05-19T03:12:09.232Z,41.18
2023-05-19T03:13:09.245Z,41.17
2023-05-19T03:14:09.244Z,41.18
2023-05-19T03:15:09.248Z,41.17
2023-05-19T03:16:09.311Z,41.17
2023-05-19T03:17:09.323Z,41.18
2023-05-19T03:18:09.381Z,41.18
2023-05-19T03:19:09.332Z,41.16
2023-05-19T03:20:09.310Z,41.18
2023-05-19T03:21:09.362Z,41.16
2023-05-19T03:22:09.410Z,41.15
2023-05-19T03:23:09.456Z,41.17
2023-05-19T03:24:09.511Z,41.16
2023-05-19T03:25:09.557Z,41.18
2023-05-19T03:26:09.601Z,41.17
2023-05-19T03:27:09.642Z,41.17
2023-05-19T03:28:09.699Z,41.18
2023-05-19T03:29:09.756Z,41.17
2023-05-19T03:30:09.786Z,41.19
2023-05-19T03:31:09.839Z,41.18
2023-05-19T03:32:09.913Z,41.15
2023-05-19T03:33:10.072Z,41.18
2023-05-19T03:34:09.969Z,41.17
2023-05-19T03:35:10.022Z,41.19
2023-05-19T03:36:10.073Z,41.17
2023-05-19T03:37:10.168Z,41.17
2023-05-19T03:38:10.156Z,41.18
2023-05-19T03:39:10.214Z,41.17
2023-05-19T03:40:10.254Z,41.20
2023-05-19T03:41:10.298Z,41.17
2023-05-19T03:42:10.348Z,41.21
2023-05-19T03:43:10.388Z,41.21
2023-05-19T03:44:10.435Z,41.20
2023-05-19T03:45:10.486Z,41.17
2023-05-19T03:46:10.582Z,41.19
2023-05-19T03:47:10.569Z,41.20
2023-05-19T03:48:10.621Z,41.19
2023-05-19T03:49:10.657Z,41.20
2023-05-19T03:50:10.720Z,41.21
2023-05-19T03:51:10.768Z,41.20
2023-05-19T03:52:10.812Z,41.21
2023-05-19T03:53:10.857Z,41.21
2023-05-19T03:54:10.884Z,41.20
2023-05-19T03:55:10.942Z,41.21
2023-05-19T03:56:10.980Z,41.20
2023-05-19T03:57:11.025Z,41.19
2023-05-19T03:58:11.071Z,41.21
2023-05-19T03:59:11.123Z,41.18
2023-05-19T04:00:11.228Z,41.21
2023-05-19T04:01:11.201Z,41.19
2023-05-19T04:02:11.275Z,41.20
2023-05-19T04:03:11.355Z,41.20
2023-05-19T04:04:11.426Z,41.22
2023-05-19T04:05:11.375Z,41.21
2023-05-19T04:06:11.431Z,41.22
2023-05-19T04:07:11.571Z,41.21
2023-05-19T04:08:11.588Z,41.22
2023-05-19T04:09:11.571Z,41.23
2023-05-19T04:10:11.624Z,41.22
2023-05-19T04:11:11.707Z,41.22
2023-05-19T04:12:11.713Z,41.21
2023-05-19T04:13:11.760Z,41.25
2023-05-19T04:14:11.803Z,41.24
2023-05-19T04:15:11.849Z,41.21
2023-05-19T04:16:11.941Z,41.25
2023-05-19T04:17:11.951Z,41.21
2023-05-19T04:18:12.092Z,41.23
2023-05-19T04:19:12.060Z,41.23
2023-05-19T04:20:12.064Z,41.24
2023-05-19T04:21:12.120Z,41.22
2023-05-19T04:22:12.188Z,41.22
2023-05-19T04:23:12.205Z,41.25
2023-05-19T04:24:12.259Z,41.25
2023-05-19T04:25:12.317Z,41.25
2023-05-19T04:26:12.350Z,41.24
2023-05-19T04:27:12.448Z,41.23
2023-05-19T04:28:12.431Z,41.24
2023-05-19T04:29:12.471Z,41.25
2023-05-19T04:30:12.520Z,41.23
2023-05-19T04:31:12.602Z,41.24
2023-05-19T04:32:12.615Z,41.24
2023-05-19T04:33:12.669Z,41.27
2023-05-19T04:34:12.713Z,41.29
2023-05-19T04:35:12.755Z,41.27
2023-05-19T04:36:12.805Z,41.26
2023-05-19T04:37:12.874Z,41.25
2023-05-19T04:38:12.917Z,41.26
2023-05-19T04:39:12.962Z,41.26
2023-05-19T04:40:13.003Z,41.28
2023-05-19T04:41:13.059Z,41.27
2023-05-19T04:42:13.091Z,41.27
2023-05-19T04:43:13.126Z,41.26
2023-05-19T04:44:13.170Z,41.25
2023-05-19T04:45:13.212Z,41.26
2023-05-19T04:46:14.085Z,41.26
2023-05-19T04:47:13.357Z,41.28
2023-05-19T04:48:13.331Z,41.28
2023-05-19T04:49:13.379Z,41.29
2023-05-19T04:50:13.429Z,41.27
2023-05-19T04:51:13.463Z,41.27
2023-05-19T04:52:13.519Z,41.28
2023-05-19T04:53:13.568Z,41.28
2023-05-19T04:54:13.619Z,41.30
2023-05-19T04:55:13.662Z,41.27
2023-05-19T04:56:13.731Z,41.27
2023-05-19T04:57:13.753Z,41.27
2023-05-19T04:58:13.797Z,41.30
2023-05-19T04:59:13.839Z,41.27
2023-05-19T05:00:13.898Z,41.26
2023-05-19T05:01:14.024Z,41.31
2023-05-19T05:02:14.058Z,41.29
2023-05-19T05:03:14.161Z,41.29
2023-05-19T05:04:14.114Z,41.31
2023-05-19T05:05:14.148Z,41.29
2023-05-19T05:06:14.177Z,41.27
2023-05-19T05:07:14.216Z,41.29
2023-05-19T05:08:14.280Z,41.30
2023-05-19T05:09:14.320Z,41.27
2023-05-19T05:10:14.372Z,41.28
2023-05-19T05:11:14.422Z,41.28
2023-05-19T05:12:14.472Z,41.28
2023-05-19T05:13:14.515Z,41.28
2023-05-19T05:14:14.563Z,41.31
2023-05-19T05:15:14.608Z,41.28
2023-05-19T05:16:14.714Z,41.28
2023-05-19T05:17:14.705Z,41.33
2023-05-19T05:18:14.749Z,41.31
2023-05-19T05:19:14.858Z,41.28
2023-05-19T05:20:14.856Z,41.30
2023-05-19T05:21:14.911Z,41.29
2023-05-19T05:22:14.956Z,41.29
2023-05-19T05:23:14.993Z,41.30
2023-05-19T05:24:15.042Z,41.28
2023-05-19T05:25:15.094Z,41.30
2023-05-19T05:26:15.156Z,41.27
2023-05-19T05:27:15.180Z,41.28
2023-05-19T05:28:15.236Z,41.29
2023-05-19T05:29:15.287Z,41.28
2023-05-19T05:30:15.329Z,41.30
2023-05-19T05:31:15.381Z,41.28
2023-05-19T05:32:15.473Z,41.27
2023-05-19T05:33:15.508Z,41.33
2023-05-19T05:34:15.505Z,41.31
2023-05-19T05:35:15.546Z,41.33
2023-05-19T05:36:15.596Z,41.30
2023-05-19T05:37:15.640Z,41.32
2023-05-19T05:38:15.704Z,41.28
2023-05-19T05:39:15.733Z,41.29
2023-05-19T05:40:15.774Z,41.32
2023-05-19T05:41:15.834Z,41.30
2023-05-19T05:42:15.869Z,41.33
2023-05-19T05:43:15.906Z,41.32
2023-05-19T05:44:15.956Z,41.32
2023-05-19T05:45:16.086Z,41.29
2023-05-19T05:46:16.062Z,41.32
2023-05-19T05:47:16.085Z,41.32
2023-05-19T05:48:16.162Z,41.32
2023-05-19T05:49:16.194Z,41.34
2023-05-19T05:50:16.219Z,41.30
2023-05-19T05:51:16.262Z,41.29
2023-05-19T05:52:16.300Z,41.34
2023-05-19T05:53:16.348Z,41.32
2023-05-19T05:54:16.393Z,41.33
2023-05-19T05:55:16.428Z,41.28
2023-05-19T05:56:16.478Z,41.31
2023-05-19T05:57:16.553Z,41.33
2023-05-19T05:58:16.567Z,41.31
2023-05-19T05:59:16.610Z,41.34
2023-05-19T06:00:16.651Z,41.33
2023-05-19T06:01:16.727Z,41.34
2023-05-19T06:02:16.790Z,41.34
2023-05-19T06:03:16.901Z,41.32
2023-05-19T06:04:16.855Z,41.33
2023-05-19T06:05:16.935Z,41.32
2023-05-19T06:06:16.944Z,41.31
2023-05-19T06:07:16.991Z,41.31
2023-05-19T06:08:17.035Z,41.31
2023-05-19T06:09:17.095Z,41.31
2023-05-19T06:10:17.127Z,41.31
2023-05-19T06:11:17.173Z,41.34
2023-05-19T06:12:17.312Z,41.33
2023-05-19T06:13:17.269Z,41.35
2023-05-19T06:14:17.313Z,41.35
2023-05-19T06:15:17.426Z,41.32
2023-05-19T06:16:17.455Z,41.30
2023-05-19T06:17:17.440Z,41.33
2023-05-19T06:18:17.485Z,41.34
2023-05-19T06:19:17.579Z,41.31
2023-05-19T06:20:17.592Z,41.32
2023-05-19T06:21:17.649Z,41.31
2023-05-19T06:22:17.665Z,41.31
2023-05-19T06:23:17.709Z,41.32
2023-05-19T06:24:17.758Z,41.31
2023-05-19T06:25:17.802Z,41.31
2023-05-19T06:26:17.834Z,41.34
2023-05-19T06:27:17.892Z,41.34
2023-05-19T06:28:17.934Z,41.33
2023-05-19T06:29:17.979Z,41.30
2023-05-19T06:30:18.014Z,41.29
2023-05-19T06:31:18.091Z,41.32
2023-05-19T06:32:18.104Z,41.30
2023-05-19T06:33:18.230Z,41.34
2023-05-19T06:34:18.185Z,41.36
2023-05-19T06:35:18.223Z,41.34
2023-05-19T06:36:18.277Z,41.34
2023-05-19T06:37:18.341Z,41.30
2023-05-19T06:38:18.374Z,41.32
2023-05-19T06:39:18.416Z,41.33
2023-05-19T06:40:18.457Z,41.34
2023-05-19T06:41:18.516Z,41.32
2023-05-19T06:42:18.931Z,41.33
2023-05-19T06:43:18.597Z,41.33
2023-05-19T06:44:20.510Z,41.33
2023-05-19T06:45:18.765Z,41.35
2023-05-19T06:46:18.841Z,41.36
2023-05-19T06:47:18.860Z,41.34
2023-05-19T06:48:18.895Z,41.31
2023-05-19T06:49:18.960Z,41.32
2023-05-19T06:50:18.999Z,41.30
2023-05-19T06:51:19.027Z,41.34
2023-05-19T06:52:19.076Z,41.34
2023-05-19T06:53:19.115Z,41.32
2023-05-19T06:54:19.154Z,41.33
2023-05-19T06:55:19.214Z,41.32
2023-05-19T06:56:19.233Z,41.34
2023-05-19T06:57:19.278Z,41.34
2023-05-19T06:58:19.311Z,41.31
2023-05-19T06:59:19.362Z,41.33
2023-05-19T07:00:22.914Z,41.34
2023-05-19T07:01:19.429Z,41.36
2023-05-19T07:02:19.444Z,41.35
2023-05-19T07:03:19.494Z,41.33
2023-05-19T07:04:19.435Z,41.32
2023-05-19T07:05:19.449Z,41.36
2023-05-19T07:06:19.462Z,41.35
2023-05-19T07:07:19.466Z,41.34
2023-05-19T07:08:19.472Z,41.33
2023-05-19T07:09:19.477Z,41.33
2023-05-19T07:10:19.500Z,41.31
2023-05-19T07:11:19.496Z,41.33
2023-05-19T07:12:19.546Z,41.35
2023-05-19T07:13:19.518Z,41.32
2023-05-19T07:14:19.529Z,41.28
2023-05-19T07:15:19.553Z,41.31
2023-05-19T07:16:19.574Z,41.31
2023-05-19T07:17:19.564Z,41.32
2023-05-19T07:18:19.570Z,41.31
2023-05-19T07:19:19.631Z,41.31
2023-05-19T07:20:19.578Z,41.33
2023-05-19T07:21:19.594Z,41.30
2023-05-19T07:22:19.616Z,41.29
2023-05-19T07:23:19.629Z,41.31
2023-05-19T07:24:19.628Z,41.30
2023-05-19T07:25:19.642Z,41.31
2023-05-19T07:26:19.644Z,41.31
2023-05-19T07:27:19.658Z,41.31
2023-05-19T07:28:19.658Z,41.32
2023-05-19T07:29:19.677Z,41.34
2023-05-19T07:30:19.686Z,41.31
2023-05-19T07:31:19.691Z,41.31
2023-05-19T07:32:19.785Z,41.32
2023-05-19T07:33:19.746Z,41.33
2023-05-19T07:34:19.775Z,41.29
2023-05-19T07:35:19.819Z,41.34
2023-05-19T07:36:19.856Z,41.31
2023-05-19T07:37:19.908Z,41.33
2023-05-19T07:38:19.951Z,41.32
2023-05-19T07:39:20.053Z,41.37
2023-05-19T07:40:20.016Z,41.34
2023-05-19T07:41:20.066Z,41.32
2023-05-19T07:42:20.095Z,41.32
2023-05-19T07:43:20.136Z,41.34
2023-05-19T07:44:20.178Z,41.31
2023-05-19T07:45:20.223Z,41.32
2023-05-19T07:46:20.331Z,41.32
2023-05-19T07:47:20.299Z,41.35
2023-05-19T07:48:20.350Z,41.33
2023-05-19T07:49:20.389Z,41.34
2023-05-19T07:50:20.427Z,41.32
2023-05-19T07:51:20.466Z,41.35
2023-05-19T07:52:20.514Z,41.35
2023-05-19T07:53:20.539Z,41.33
2023-05-19T07:54:20.583Z,41.33
2023-05-19T07:55:20.619Z,41.36
2023-05-19T07:56:20.651Z,41.33
2023-05-19T07:57:20.694Z,41.33
2023-05-19T07:58:20.745Z,41.33
2023-05-19T07:59:20.783Z,41.31
2023-05-19T08:00:20.813Z,41.31
2023-05-19T08:01:20.874Z,41.34
2023-05-19T08:02:21.057Z,41.35
2023-05-19T08:03:21.182Z,41.29
2023-05-19T08:04:21.009Z,41.32
2023-05-19T08:05:21.019Z,41.31
2023-05-19T08:06:21.057Z,41.30
2023-05-19T08:07:21.110Z,41.34
2023-05-19T08:08:21.125Z,41.33
2023-05-19T08:09:21.176Z,41.34
2023-05-19T08:10:21.214Z,41.32
2023-05-19T08:11:21.250Z,41.33
2023-05-19T08:12:21.292Z,41.36
2023-05-19T08:13:21.322Z,41.34
2023-05-19T08:14:21.377Z,41.34
2023-05-19T08:15:21.409Z,41.33
2023-05-19T08:16:21.550Z,41.32
2023-05-19T08:17:21.496Z,41.33
2023-05-19T08:18:21.534Z,41.35
2023-05-19T08:19:21.821Z,41.34
2023-05-19T08:20:21.619Z,41.36
2023-05-19T08:21:21.657Z,41.36
2023-05-19T08:22:21.702Z,41.35
2023-05-19T08:23:21.740Z,41.33
2023-05-19T08:24:21.778Z,41.34
2023-05-19T08:25:21.809Z,41.33
2023-05-19T08:26:21.855Z,41.32
2023-05-19T08:27:21.907Z,41.32
2023-05-19T08:28:21.951Z,41.34
2023-05-19T08:29:22.005Z,41.35
2023-05-19T08:30:22.067Z,41.33
2023-05-19T08:31:22.126Z,41.33
2023-05-19T08:32:22.164Z,41.33
2023-05-19T08:33:22.161Z,41.32
2023-05-19T08:34:22.217Z,41.32
2023-05-19T08:35:22.244Z,41.33
2023-05-19T08:36:22.297Z,41.30
2023-05-19T08:37:22.334Z,41.31
2023-05-19T08:38:22.367Z,41.32
2023-05-19T08:39:22.424Z,41.33
2023-05-19T08:40:22.488Z,41.33
2023-05-19T08:41:22.488Z,41.33
2023-05-19T08:42:22.540Z,41.33
2023-05-19T08:43:22.594Z,41.32
2023-05-19T08:44:22.653Z,41.30
2023-05-19T08:45:22.665Z,41.32
2023-05-19T08:46:22.752Z,41.33
2023-05-19T08:47:22.813Z,41.33
2023-05-19T08:48:22.811Z,41.33
2023-05-19T08:49:25.371Z,41.33
2023-05-19T08:50:22.982Z,41.35
2023-05-19T08:51:22.930Z,41.32
2023-05-19T08:52:22.917Z,41.34
2023-05-19T08:53:33.432Z,41.31
2023-05-19T08:54:23.930Z,41.34
2023-05-19T08:55:22.941Z,41.32
2023-05-19T08:56:22.949Z,41.32
2023-05-19T08:57:22.973Z,41.33
2023-05-19T08:58:23.054Z,41.34
2023-05-19T08:59:22.993Z,41.33
2023-05-19T09:00:23.163Z,41.34
2023-05-19T09:01:23.095Z,41.35
2023-05-19T09:02:23.041Z,41.35
2023-05-19T09:03:23.738Z,41.37
2023-05-19T09:04:23.135Z,41.36
2023-05-19T09:05:23.117Z,41.32
2023-05-19T09:06:23.071Z,41.33
2023-05-19T09:07:23.393Z,41.35
2023-05-19T09:08:23.198Z,41.37
2023-05-19T09:09:23.128Z,41.34
2023-05-19T09:10:23.188Z,41.34
2023-05-19T09:11:23.166Z,41.34
2023-05-19T09:12:23.168Z,41.32
2023-05-19T09:13:23.214Z,41.32
2023-05-19T09:14:23.236Z,41.33
2023-05-19T09:15:23.245Z,41.35
2023-05-19T09:16:23.306Z,41.33
2023-05-19T09:17:23.285Z,41.33
2023-05-19T09:18:23.299Z,41.35
2023-05-19T09:19:23.424Z,41.36
2023-05-19T09:20:23.370Z,41.33
2023-05-19T09:21:23.417Z,41.37
2023-05-19T09:22:23.463Z,41.33
2023-05-19T09:23:23.473Z,41.32
2023-05-19T09:24:23.515Z,41.32
2023-05-19T09:25:23.544Z,41.35
2023-05-19T09:26:23.592Z,41.34
2023-05-19T09:27:23.647Z,41.33
2023-05-19T09:28:23.659Z,41.34
2023-05-19T09:29:23.689Z,41.37
2023-05-19T09:30:23.720Z,41.32
2023-05-19T09:31:23.770Z,41.33
2023-05-19T09:32:23.887Z,41.34
2023-05-19T09:33:23.834Z,41.35
2023-05-19T09:34:23.878Z,41.35
2023-05-19T09:35:23.913Z,41.35
2023-05-19T09:36:23.936Z,41.34
2023-05-19T09:37:23.982Z,41.32
2023-05-19T09:38:24.013Z,41.34
2023-05-19T09:39:24.083Z,41.33
2023-05-19T09:40:24.088Z,41.34
2023-05-19T09:41:24.192Z,41.37
2023-05-19T09:42:24.155Z,41.34
2023-05-19T09:43:24.206Z,41.35
2023-05-19T09:44:24.224Z,41.36
2023-05-19T09:45:24.346Z,41.33
2023-05-19T09:46:24.335Z,41.35
2023-05-19T09:47:24.366Z,41.36
2023-05-19T09:48:24.373Z,41.35
2023-05-19T09:49:24.399Z,41.35
2023-05-19T09:50:24.427Z,41.34
2023-05-19T09:51:24.472Z,41.35
2023-05-19T09:52:24.515Z,41.36
2023-05-19T09:53:24.521Z,41.35
2023-05-19T09:54:24.561Z,41.35
2023-05-19T09:55:24.594Z,41.35
2023-05-19T09:56:24.632Z,41.38
2023-05-19T09:57:24.684Z,41.32
2023-05-19T09:58:24.725Z,41.35
2023-05-19T09:59:24.742Z,41.34
2023-05-19T10:00:24.781Z,41.36
2023-05-19T10:01:24.850Z,41.35
2023-05-19T10:02:24.853Z,41.36
2023-05-19T10:03:24.881Z,41.36
2023-05-19T10:04:24.920Z,41.35
2023-05-19T10:05:24.965Z,41.33
2023-05-19T10:06:24.977Z,41.37
2023-05-19T10:07:25.017Z,41.35
2023-05-19T10:08:25.038Z,41.34
2023-05-19T10:09:25.109Z,41.36
2023-05-19T10:10:25.102Z,41.36
2023-05-19T10:11:25.124Z,41.34
2023-05-19T10:12:25.160Z,41.34
2023-05-19T10:13:25.175Z,41.35
2023-05-19T10:14:25.233Z,41.36
2023-05-19T10:15:25.239Z,41.36
2023-05-19T10:16:25.280Z,41.34
2023-05-19T10:17:25.333Z,41.34
2023-05-19T10:18:25.308Z,41.39
2023-05-19T10:19:25.438Z,41.38
2023-05-19T10:20:25.378Z,41.35
2023-05-19T10:21:25.402Z,41.37
2023-05-19T10:22:25.441Z,41.37
2023-05-19T10:23:25.478Z,41.37
2023-05-19T10:24:25.530Z,41.36
2023-05-19T10:25:25.523Z,41.38
2023-05-19T10:26:25.545Z,41.35
2023-05-19T10:27:25.583Z,41.35
2023-05-19T10:28:25.684Z,41.35
2023-05-19T10:29:25.653Z,41.37
2023-05-19T10:30:25.660Z,41.35
2023-05-19T10:31:25.692Z,41.37
2023-05-19T10:32:25.836Z,41.38
2023-05-19T10:33:25.795Z,41.32
2023-05-19T10:34:25.760Z,41.35
2023-05-19T10:35:25.793Z,41.37
2023-05-19T10:36:25.819Z,41.39
2023-05-19T10:37:25.839Z,41.36
2023-05-19T10:38:25.882Z,41.37
2023-05-19T10:39:25.899Z,41.37
2023-05-19T10:40:25.933Z,41.35
2023-05-19T10:41:25.971Z,41.37
2023-05-19T10:42:26.004Z,41.36
2023-05-19T10:43:26.017Z,41.37
2023-05-19T10:44:26.050Z,41.35
2023-05-19T10:45:26.066Z,41.37
2023-05-19T10:46:26.174Z,41.36
2023-05-19T10:47:26.199Z,41.36
2023-05-19T10:48:26.145Z,41.34
2023-05-19T10:49:26.183Z,41.38
2023-05-19T10:50:26.204Z,41.34
2023-05-19T10:51:26.237Z,41.38
2023-05-19T10:52:26.436Z,41.35
2023-05-19T10:53:26.290Z,41.35
2023-05-19T10:54:26.318Z,41.36
2023-05-19T10:55:26.342Z,41.39
2023-05-19T10:56:26.367Z,41.37
2023-05-19T10:57:26.423Z,41.35
2023-05-19T10:58:26.417Z,41.35
2023-05-19T10:59:27.880Z,41.35
2023-05-19T11:00:26.662Z,41.35
2023-05-19T11:01:26.696Z,41.39
2023-05-19T11:02:26.791Z,41.35
2023-05-19T11:03:26.771Z,41.38
2023-05-19T11:04:26.879Z,41.36
2023-05-19T11:05:26.775Z,41.39
2023-05-19T11:06:26.816Z,41.37
2023-05-19T11:07:26.842Z,41.40
2023-05-19T11:08:26.840Z,41.35
2023-05-19T11:09:38.008Z,41.39
2023-05-19T11:10:27.889Z,41.40
2023-05-19T11:11:26.905Z,41.37
2023-05-19T11:12:26.898Z,41.37
2023-05-19T11:13:28.424Z,41.38
2023-05-19T11:14:26.968Z,41.36
2023-05-19T11:15:26.928Z,41.36
2023-05-19T11:16:26.968Z,41.36
2023-05-19T11:17:26.960Z,41.35
2023-05-19T11:18:26.969Z,41.35
2023-05-19T11:19:27.005Z,41.37
2023-05-19T11:20:27.006Z,41.38
2023-05-19T11:21:27.058Z,41.37
2023-05-19T11:22:27.038Z,41.37
2023-05-19T11:23:27.026Z,41.38
2023-05-19T11:24:27.034Z,41.39
2023-05-19T11:25:27.038Z,41.39
2023-05-19T11:26:27.041Z,41.36
2023-05-19T11:27:27.046Z,41.39
2023-05-19T11:28:27.061Z,41.38
2023-05-19T11:29:27.074Z,41.38
2023-05-19T11:30:27.075Z,41.39
2023-05-19T11:31:27.092Z,41.39
2023-05-19T11:32:27.171Z,41.42
2023-05-19T11:33:27.260Z,41.39
2023-05-19T11:34:27.093Z,41.38
2023-05-19T11:35:27.103Z,41.38
2023-05-19T11:36:27.106Z,41.38
2023-05-19T11:37:27.165Z,41.38
2023-05-19T11:38:27.116Z,41.37
2023-05-19T11:39:27.120Z,41.38
2023-05-19T11:40:27.122Z,41.38
2023-05-19T11:41:27.118Z,41.40
2023-05-19T11:42:27.150Z,41.40
2023-05-19T11:43:27.154Z,41.39
2023-05-19T11:44:27.147Z,41.38
2023-05-19T11:45:27.195Z,41.38
2023-05-19T11:46:27.191Z,41.41
2023-05-19T11:47:27.202Z,41.39
2023-05-19T11:48:27.215Z,41.37
2023-05-19T11:49:27.217Z,41.38
2023-05-19T11:50:27.237Z,41.38
2023-05-19T11:51:27.253Z,41.37
2023-05-19T11:52:27.273Z,41.36
2023-05-19T11:53:27.296Z,41.40
2023-05-19T11:54:27.318Z,41.38
2023-05-19T11:55:27.345Z,41.38
2023-05-19T11:56:27.373Z,41.39
2023-05-19T11:57:27.381Z,41.38
2023-05-19T11:58:27.402Z,41.38
2023-05-19T11:59:27.424Z,41.40
2023-05-19T12:00:27.450Z,41.39
2023-05-19T12:01:27.483Z,41.39
2023-05-19T12:02:27.713Z,41.38
2023-05-19T12:03:27.578Z,41.41
2023-05-19T12:04:27.558Z,41.38
2023-05-19T12:05:27.594Z,41.38
2023-05-19T12:06:27.649Z,41.39
2023-05-19T12:07:27.630Z,41.38
2023-05-19T12:08:27.672Z,41.39
2023-05-19T12:09:27.659Z,41.41
2023-05-19T12:10:27.667Z,41.38
2023-05-19T12:11:27.708Z,41.38
2023-05-19T12:12:27.724Z,41.36
2023-05-19T12:13:27.729Z,41.39
2023-05-19T12:14:27.758Z,41.39
2023-05-19T12:15:27.779Z,41.37
2023-05-19T12:16:27.861Z,41.36
2023-05-19T12:17:27.859Z,41.38
2023-05-19T12:18:27.836Z,41.37
2023-05-19T12:19:27.946Z,41.36
2023-05-19T12:20:27.882Z,41.36
2023-05-19T12:21:34.192Z,41.37
2023-05-19T12:22:28.900Z,41.36
2023-05-19T12:23:27.900Z,41.36
2023-05-19T12:24:27.910Z,41.38
2023-05-19T12:25:27.968Z,41.38
2023-05-19T12:26:27.911Z,41.38
2023-05-19T12:27:27.941Z,41.37
2023-05-19T12:28:27.935Z,41.41
2023-05-19T12:29:27.944Z,41.38
2023-05-19T12:30:27.942Z,41.39
2023-05-19T12:31:27.993Z,41.38
2023-05-19T12:32:28.034Z,41.38
2023-05-19T12:33:27.982Z,41.37
2023-05-19T12:34:27.994Z,41.40
2023-05-19T12:35:27.975Z,41.37
2023-05-19T12:36:27.988Z,41.38
2023-05-19T12:37:28.007Z,41.37
2023-05-19T12:38:27.995Z,41.40
2023-05-19T12:39:28.009Z,41.40
2023-05-19T12:40:28.011Z,41.39
2023-05-19T12:41:28.028Z,41.38
2023-05-19T12:42:28.045Z,41.38
2023-05-19T12:43:28.040Z,41.40
2023-05-19T12:44:28.046Z,41.36
2023-05-19T12:45:28.118Z,41.39
2023-05-19T12:46:28.109Z,41.40
2023-05-19T12:47:28.123Z,41.38
2023-05-19T12:48:28.062Z,41.38
2023-05-19T12:49:28.087Z,41.37
2023-05-19T12:50:28.076Z,41.38
2023-05-19T12:51:28.078Z,41.38
2023-05-19T12:52:28.107Z,41.37